Terminal Aerodrome Forecast
Issued by NWS

Home | Current Version | Previous Version | Text Only | Print | Product List | Glossary On
Versions: 1 2 3 4 5 6 7 8 9 10 11 12 13 14
000
FTUS41 KBTV 011700
TAFRUT
TAF
KRUT 011726Z 0118/0218 34005KT P6SM OVC035
     FM020100 13007KT P6SM OVC015
     FM021500 13004KT P6SM SCT015 OVC030
      AMD LTD TO CLD VIS AND WIND=

USA.gov is the U.S. government's official web portal to all federal, state and local government web resources and services.